Time;durP1;ratioP1;P1;durP2;ratioP2;P2;SDS_P1;SDS_P2;PMS_P1;PMS_P2;Temp;Humidity;BMP_temperature;BMP_pressure;BME280_temperature;BME280_humidity;BME280_pressure;Samples;Min_cycle;Max_cycle;Signal;HPM_P1;HPM_P2
2021/03/23 00:01:07;;;;;;;14.70;10.02;;;;;;;10.91;33.16;101628.72;4991155;28;20112;-64
2021/03/23 00:03:49;;;;;;;18.67;10.00;;;;;;;10.92;33.56;101635.69;4993264;28;20090;-65
2021/03/23 00:06:21;;;;;;;16.90;10.77;;;;;;;10.92;33.30;101638.31;4993328;28;20057;-65
2021/03/23 00:08:50;;;;;;;17.48;10.32;;;;;;;10.92;32.96;101635.69;4993168;28;20069;-64
2021/03/23 00:11:16;;;;;;;15.68;10.80;;;;;;;10.92;33.29;101638.31;4993372;28;20046;-64
2021/03/23 00:13:43;;;;;;;16.17;11.02;;;;;;;10.92;33.50;101640.94;4993300;28;20046;-65
2021/03/23 00:16:11;;;;;;;14.52;10.48;;;;;;;10.92;33.60;101637.47;4993396;28;20054;-64
2021/03/23 00:18:39;;;;;;;16.88;10.88;;;;;;;10.92;33.48;101637.47;4993161;28;20073;-64
2021/03/23 00:21:06;;;;;;;19.20;11.63;;;;;;;10.93;33.44;101641.78;4993258;28;20050;-64
2021/03/23 00:23:32;;;;;;;17.92;10.32;;;;;;;10.92;33.71;101643.56;4993108;28;20047;-64
2021/03/23 00:25:59;;;;;;;22.45;10.85;;;;;;;10.91;33.80;101643.63;4993054;28;20460;-65
2021/03/23 00:28:25;;;;;;;18.45;10.90;;;;;;;10.90;33.96;101649.81;4993052;28;20101;-65
2021/03/23 00:30:53;;;;;;;16.27;10.30;;;;;;;10.91;33.99;101654.16;4993237;28;20426;-65
2021/03/23 00:33:20;;;;;;;14.63;10.60;;;;;;;10.90;33.81;101655.06;5012344;28;20578;-65
2021/03/23 00:35:47;;;;;;;17.55;10.57;;;;;;;10.89;33.85;101648.09;5012719;28;20046;-64
2021/03/23 00:38:14;;;;;;;13.93;9.85;;;;;;;10.87;33.75;101658.66;5012633;28;20046;-64
2021/03/23 00:40:40;;;;;;;13.38;9.50;;;;;;;10.87;33.78;101657.78;5012576;28;20057;-65
2021/03/23 00:43:08;;;;;;;15.55;11.38;;;;;;;10.86;33.90;101659.59;5011866;28;20076;-64
2021/03/23 00:45:43;;;;;;;15.63;10.35;;;;;;;10.85;33.63;101659.66;4992883;28;20462;-64
2021/03/23 00:48:11;;;;;;;15.88;10.95;;;;;;;10.84;33.50;101655.31;4993559;28;20051;-64
2021/03/23 00:50:37;;;;;;;17.13;10.70;;;;;;;10.83;33.43;101664.97;5012575;28;20053;-64
2021/03/23 00:53:04;;;;;;;15.80;10.30;;;;;;;10.80;33.65;101667.72;5016400;28;20506;-64
2021/03/23 00:55:31;;;;;;;13.93;10.30;;;;;;;10.79;33.80;101668.63;5016273;28;20120;-65
2021/03/23 00:57:57;;;;;;;15.85;10.75;;;;;;;10.76;33.91;101668.78;5016518;28;20042;-64
2021/03/23 01:00:24;;;;;;;14.63;11.07;;;;;;;10.74;33.89;101673.22;5016354;28;20108;-64
2021/03/23 01:02:50;;;;;;;14.73;10.38;;;;;;;10.71;33.96;101671.59;5015881;28;20050;-65
2021/03/23 01:05:19;;;;;;;16.38;11.05;;;;;;;10.67;34.10;101677.88;5016276;28;20046;-64
2021/03/23 01:07:46;;;;;;;19.63;11.15;;;;;;;10.62;34.06;101669.34;5015205;28;20077;-65
2021/03/23 01:10:14;;;;;;;15.07;11.15;;;;;;;10.58;34.27;101683.53;5016117;28;20061;-65
2021/03/23 01:12:41;;;;;;;16.75;10.98;;;;;;;10.54;34.37;101674.94;5016122;28;20050;-64
2021/03/23 01:15:10;;;;;;;19.35;12.18;;;;;;;10.51;34.61;101685.53;5016187;28;20482;-65
2021/03/23 01:17:36;;;;;;;15.55;11.25;;;;;;;10.48;34.73;101693.53;5016151;28;20112;-64
2021/03/23 01:20:05;;;;;;;16.08;10.80;;;;;;;10.44;34.61;101687.56;5015898;28;20050;-64
2021/03/23 01:22:31;;;;;;;16.92;11.15;;;;;;;10.41;34.54;101692.06;5015906;28;20046;-64
2021/03/23 01:24:57;;;;;;;19.10;11.73;;;;;;;10.39;34.80;101691.31;5015138;28;20049;-64
2021/03/23 01:27:23;;;;;;;16.58;11.20;;;;;;;10.37;34.55;101693.97;5015844;28;20073;-64
2021/03/23 01:29:49;;;;;;;17.45;11.40;;;;;;;10.36;34.62;101694.03;5015794;28;20057;-65
2021/03/23 01:32:15;;;;;;;14.57;10.27;;;;;;;10.34;34.39;101696.69;5015971;28;20046;-64
2021/03/23 01:34:44;;;;;;;15.50;10.30;;;;;;;10.32;34.60;101690.66;5015752;28;20971;-65
2021/03/23 01:37:11;;;;;;;18.05;10.70;;;;;;;10.33;34.55;101704.63;5015702;28;20054;-67
2021/03/23 01:39:37;;;;;;;17.50;11.50;;;;;;;10.30;34.72;101703.84;5015513;28;20461;-64
2021/03/23 01:42:04;;;;;;;13.23;9.93;;;;;;;10.28;34.58;101712.69;5014455;28;20461;-64
2021/03/23 01:44:31;;;;;;;14.38;9.85;;;;;;;10.27;34.74;101708.34;5015451;28;20046;-64
2021/03/23 01:46:57;;;;;;;13.90;9.30;;;;;;;10.25;34.80;101708.41;5015451;28;20482;-64
2021/03/23 01:49:27;;;;;;;12.65;9.18;;;;;;;10.26;35.19;101709.28;5015456;28;20112;-64
2021/03/23 01:51:56;;;;;;;15.35;9.15;;;;;;;10.25;35.09;101712.81;5015639;28;20049;-64
2021/03/23 01:54:33;;;;;;;12.50;9.38;;;;;;;10.25;35.33;101724.16;5015470;28;20108;-64
2021/03/23 01:57:04;;;;;;;14.90;8.95;;;;;;;10.23;35.16;101718.13;5014407;28;20042;-64
2021/03/23 01:59:35;;;;;;;12.32;8.82;;;;;;;10.22;35.56;101726.91;5015083;28;20100;-64
2021/03/23 02:02:02;;;;;;;19.45;8.52;;;;;;;10.22;35.53;101731.28;5015228;28;20050;-65
2021/03/23 02:04:29;;;;;;;15.77;9.00;;;;;;;10.19;35.49;101727.00;5015012;28;20518;-64
2021/03/23 02:06:56;;;;;;;12.98;8.85;;;;;;;10.18;35.60;101722.69;5015192;28;20552;-64
2021/03/23 02:09:25;;;;;;;13.55;8.65;;;;;;;10.18;35.70;101734.94;5015041;28;20399;-65
2021/03/23 02:12:21;;;;;;;12.90;9.00;;;;;;;10.15;35.86;101725.44;5003885;28;20131;-65
2021/03/23 02:14:48;;;;;;;12.35;8.55;;;;;;;10.12;36.19;101726.41;5013248;28;20077;-64
2021/03/23 02:17:33;;;;;;;13.48;8.40;;;;;;;10.10;36.15;101722.13;5014659;28;20049;-64
2021/03/23 02:20:13;;;;;;;11.90;8.77;;;;;;;10.10;36.44;101728.22;5015035;28;20100;-64
2021/03/23 02:22:42;;;;;;;12.05;8.43;;;;;;;10.08;36.59;101731.81;5014800;28;20050;-64
2021/03/23 02:25:15;;;;;;;13.18;8.25;;;;;;;10.06;36.51;101733.66;5014976;28;20059;-65
2021/03/23 02:27:41;;;;;;;11.02;8.70;;;;;;;10.04;36.40;101728.47;5014646;28;20054;-64
2021/03/23 02:30:14;;;;;;;14.85;8.18;;;;;;;10.03;36.84;101733.75;5015003;28;20475;-64
2021/03/23 02:32:40;;;;;;;9.93;8.05;;;;;;;10.00;36.85;101737.34;5014739;28;20042;-64
2021/03/23 02:35:26;;;;;;;13.27;8.30;;;;;;;9.97;37.17;101743.56;5014636;28;20069;-64
2021/03/23 02:37:52;;;;;;;12.00;8.93;;;;;;;9.92;37.10;101747.31;5014591;28;20046;-65
2021/03/23 02:40:18;;;;;;;12.10;9.38;;;;;;;9.86;37.39;101744.91;5014437;28;20046;-64
2021/03/23 02:42:44;;;;;;;13.38;9.05;;;;;;;9.78;37.39;101755.69;5014550;28;20053;-64
2021/03/23 02:45:11;;;;;;;16.83;9.10;;;;;;;9.72;37.60;101753.28;5014423;28;20050;-64
2021/03/23 02:47:37;;;;;;;11.63;9.35;;;;;;;9.67;37.95;101756.06;5013270;28;20049;-64
2021/03/23 02:50:05;;;;;;;12.88;8.70;;;;;;;9.64;38.02;101758.81;5014264;28;20046;-64
2021/03/23 02:52:31;;;;;;;11.10;8.50;;;;;;;9.60;38.05;101760.69;5014169;28;20124;-64
2021/03/23 02:54:57;;;;;;;13.50;8.85;;;;;;;9.58;38.22;101766.88;5014165;28;20100;-64
2021/03/23 02:57:23;;;;;;;10.25;8.35;;;;;;;9.55;38.50;101766.97;5014063;28;20583;-64
2021/03/23 02:59:49;;;;;;;16.27;8.35;;;;;;;9.54;38.33;101766.13;5014200;28;20491;-64
2021/03/23 03:02:15;;;;;;;11.73;8.05;;;;;;;9.52;38.58;101767.94;5014186;28;20457;-64
2021/03/23 03:04:43;;;;;;;14.57;7.88;;;;;;;9.52;38.79;101767.09;5012847;28;20058;-64
2021/03/23 03:07:12;;;;;;;18.88;7.88;;;;;;;9.51;38.68;101765.38;5014033;28;20049;-65
2021/03/23 03:09:38;;;;;;;15.95;7.78;;;;;;;9.50;38.60;101768.91;5013810;28;20050;-65
2021/03/23 03:12:06;;;;;;;15.50;8.38;;;;;;;9.48;38.58;101775.09;5013375;28;20049;-64
2021/03/23 03:14:32;;;;;;;14.02;7.70;;;;;;;9.48;38.75;101771.59;5013881;28;20096;-64
2021/03/23 03:16:58;;;;;;;11.35;7.80;;;;;;;9.47;38.90;101776.00;5013981;28;20045;-64
2021/03/23 03:19:24;;;;;;;12.30;6.95;;;;;;;9.51;38.78;101773.25;5012912;28;20490;-64
2021/03/23 03:21:50;;;;;;;13.95;7.47;;;;;;;9.52;38.74;101783.66;5013676;28;20042;-65
2021/03/23 03:24:16;;;;;;;11.82;6.88;;;;;;;9.52;39.04;101785.44;5013579;28;20046;-65
2021/03/23 03:26:42;;;;;;;10.45;5.90;;;;;;;9.53;38.93;101787.16;5012374;28;20050;-64
2021/03/23 03:29:09;;;;;;;9.77;5.95;;;;;;;9.54;39.08;101786.25;5013732;28;20053;-64
2021/03/23 03:31:35;;;;;;;10.20;5.97;;;;;;;9.54;39.03;101779.22;5013534;28;20061;-64
2021/03/23 03:34:02;;;;;;;10.32;6.72;;;;;;;9.55;39.16;101790.56;5013453;28;20092;-64
2021/03/23 03:36:32;;;;;;;6.35;4.88;;;;;;;9.57;39.29;101788.75;5012440;28;20126;-64
2021/03/23 03:38:58;;;;;;;7.72;5.60;;;;;;;9.56;39.19;101787.03;5013600;28;20050;-64
2021/03/23 03:41:26;;;;;;;8.23;4.88;;;;;;;9.56;39.31;101792.28;5012100;28;20493;-64
2021/03/23 03:43:53;;;;;;;12.13;6.13;;;;;;;9.55;39.41;101795.81;5013297;28;20046;-64
2021/03/23 03:46:20;;;;;;;6.68;4.80;;;;;;;9.53;39.25;101803.72;5013332;28;20052;-65
2021/03/23 03:48:46;;;;;;;8.52;5.25;;;;;;;9.53;39.49;101814.19;5013215;28;20046;-64
2021/03/23 03:51:13;;;;;;;8.57;4.75;;;;;;;9.52;39.50;101812.47;5013212;28;20057;-64
2021/03/23 03:53:39;;;;;;;6.82;4.82;;;;;;;9.51;39.24;101812.53;5012160;28;20065;-64
2021/03/23 03:56:05;;;;;;;7.82;4.53;;;;;;;9.47;39.48;101820.53;5013081;28;20421;-64
2021/03/23 03:58:32;;;;;;;8.15;4.75;;;;;;;9.46;39.42;101816.19;5012984;28;20073;-64
2021/03/23 04:00:58;;;;;;;7.85;5.20;;;;;;;9.44;39.68;101811.91;5012841;28;20104;-65
2021/03/23 04:03:27;;;;;;;7.15;4.35;;;;;;;9.42;39.74;101818.97;5008710;28;20093;-64
2021/03/23 04:05:56;;;;;;;9.82;4.80;;;;;;;9.41;39.44;101825.97;5009769;28;20483;-64
2021/03/23 04:08:33;;;;;;;8.30;4.60;;;;;;;9.38;39.68;101836.53;5009545;28;20093;-64
2021/03/23 04:11:02;;;;;;;8.90;5.38;;;;;;;9.36;39.67;101832.25;5009513;28;20053;-65
2021/03/23 04:13:28;;;;;;;7.03;4.70;;;;;;;9.33;39.93;101838.47;5008235;28;20494;-64
2021/03/23 04:15:55;;;;;;;10.40;4.57;;;;;;;9.31;40.16;101841.13;5009352;28;20050;-64
2021/03/23 04:18:26;;;;;;;8.73;4.28;;;;;;;9.29;40.19;101848.22;5009561;28;20046;-64
2021/03/23 04:20:55;;;;;;;7.47;4.75;;;;;;;9.27;40.22;101851.78;5009158;28;20081;-64
2021/03/23 04:23:38;;;;;;;6.60;4.28;;;;;;;9.26;40.46;101847.44;5008253;28;20084;-64
2021/03/23 04:26:06;;;;;;;5.95;4.05;;;;;;;9.23;40.49;101861.50;5006643;28;20050;-64
2021/03/23 04:28:33;;;;;;;8.30;4.60;;;;;;;9.23;40.53;101863.25;5009368;28;20936;-65
2021/03/23 04:30:59;;;;;;;7.03;3.78;;;;;;;9.22;40.43;101859.78;5009319;28;20164;-64
2021/03/23 04:33:27;;;;;;;6.32;4.10;;;;;;;9.24;40.59;101858.00;5009273;28;20058;-63
2021/03/23 04:35:57;;;;;;;5.70;3.42;;;;;;;9.24;40.67;101862.34;5009387;28;20056;-64
2021/03/23 04:38:27;;;;;;;11.90;4.22;;;;;;;9.23;40.76;101866.75;5009217;28;20410;-64
2021/03/23 04:40:54;;;;;;;7.93;4.00;;;;;;;9.23;40.78;101868.50;5009231;28;20046;-64
2021/03/23 04:43:26;;;;;;;8.35;4.10;;;;;;;9.20;40.69;101871.22;5009245;28;20046;-64
2021/03/23 04:45:53;;;;;;;6.15;3.85;;;;;;;9.19;41.13;101874.75;5009227;28;20486;-65
2021/03/23 04:48:19;;;;;;;8.57;4.43;;;;;;;9.15;40.90;101873.97;5009190;28;20049;-64
2021/03/23 04:50:46;;;;;;;7.28;4.63;;;;;;;9.11;41.24;101881.06;5009226;28;20054;-64
2021/03/23 04:53:25;;;;;;;8.30;3.95;;;;;;;9.09;41.11;101882.03;5009220;28;20070;-64
2021/03/23 04:55:52;;;;;;;7.78;4.30;;;;;;;9.07;41.16;101887.31;5008386;28;20056;-64
2021/03/23 04:58:20;;;;;;;7.63;3.60;;;;;;;9.07;41.35;101889.09;5009293;28;20042;-64
2021/03/23 05:00:46;;;;;;;9.52;4.15;;;;;;;9.06;41.32;101898.69;5009101;28;20045;-64
2021/03/23 05:03:15;;;;;;;5.75;3.80;;;;;;;9.06;41.30;101895.22;5008946;28;20053;-64
2021/03/23 05:05:41;;;;;;;7.50;3.78;;;;;;;9.04;41.36;101900.53;5009194;28;20054;-64
2021/03/23 05:08:07;;;;;;;9.73;4.32;;;;;;;9.03;41.45;101898.81;5008949;28;20482;-64
2021/03/23 05:10:34;;;;;;;10.07;3.90;;;;;;;9.03;41.55;101908.41;5008081;28;20053;-65
2021/03/23 05:13:02;;;;;;;6.78;3.83;;;;;;;9.02;41.46;101906.72;5008702;28;20046;-64
2021/03/23 05:15:30;;;;;;;14.38;3.90;;;;;;;9.00;41.68;101901.50;5009229;28;20046;-64
2021/03/23 05:17:56;;;;;;;8.10;4.00;;;;;;;8.99;41.56;101911.13;5008915;28;20050;-64
2021/03/23 05:20:22;;;;;;;7.45;3.55;;;;;;;8.97;41.99;101923.41;5009004;28;20053;-65
2021/03/23 05:22:48;;;;;;;7.88;3.60;;;;;;;8.96;41.84;101921.72;5024168;28;20053;-65
2021/03/23 05:25:15;;;;;;;14.32;4.00;;;;;;;8.94;42.12;101920.88;5008929;28;20046;-64
2021/03/23 05:27:41;;;;;;;11.40;4.30;;;;;;;8.93;41.98;101932.25;5008843;28;20050;-65
2021/03/23 05:30:10;;;;;;;9.00;4.25;;;;;;;8.93;42.27;101931.41;5008223;28;20552;-67
2021/03/23 05:32:36;;;;;;;5.68;3.67;;;;;;;8.91;42.20;101931.47;4988901;28;20569;-65
2021/03/23 05:35:05;;;;;;;5.47;3.95;;;;;;;8.93;42.33;101940.13;4990986;28;20484;-64
2021/03/23 05:37:46;;;;;;;8.55;3.80;;;;;;;8.96;42.31;101933.94;4992811;28;20051;-64
2021/03/23 05:40:37;;;;;;;9.23;3.88;;;;;;;8.97;42.14;101939.09;4992795;28;20062;-65
2021/03/23 05:43:21;;;;;;;5.05;3.42;;;;;;;9.01;42.25;101950.34;4992220;28;20058;-66
2021/03/23 05:45:52;;;;;;;9.95;3.72;;;;;;;9.05;42.20;101957.19;4998925;28;20050;-64
2021/03/23 05:48:32;;;;;;;9.35;4.38;;;;;;;9.09;42.51;101956.22;5011459;28;20045;-64
2021/03/23 05:51:03;;;;;;;8.50;5.13;;;;;;;9.13;42.65;101964.84;5012274;28;20050;-64
2021/03/23 05:53:47;;;;;;;10.35;4.57;;;;;;;9.18;42.61;101968.19;5011873;28;20053;-64
2021/03/23 05:56:15;;;;;;;12.20;5.90;;;;;;;9.21;42.49;101967.22;5011105;28;20054;-65
2021/03/23 05:58:49;;;;;;;11.80;4.50;;;;;;;9.24;42.64;101967.13;5011983;28;20494;-65
2021/03/23 06:01:28;;;;;;;9.65;4.38;;;;;;;9.27;42.58;101974.91;5011833;28;20104;-64
2021/03/23 06:04:38;;;;;;;11.95;4.43;;;;;;;9.28;42.55;101980.09;5011832;28;20100;-65
2021/03/23 06:07:10;;;;;;;8.25;3.78;;;;;;;9.30;42.77;101980.03;5010230;28;20046;-64
2021/03/23 06:09:39;;;;;;;6.90;3.53;;;;;;;9.32;42.95;101978.22;5011872;28;20062;-64
2021/03/23 06:12:42;;;;;;;6.68;3.58;;;;;;;9.34;42.80;101984.25;5011980;28;20042;-64
2021/03/23 06:15:33;;;;;;;7.97;3.40;;;;;;;9.36;43.01;101986.81;5011322;28;20581;-64
2021/03/23 06:18:02;;;;;;;8.15;3.55;;;;;;;9.37;43.14;101986.78;4991976;28;20479;-64
2021/03/23 06:21:15;;;;;;;7.93;3.80;;;;;;;9.40;43.02;101989.31;4991935;28;20052;-65
2021/03/23 06:23:59;;;;;;;9.82;3.35;;;;;;;9.43;43.35;101996.22;4991642;28;20137;-64
2021/03/23 06:26:51;;;;;;;8.43;3.23;;;;;;;9.44;43.46;101990.91;4992048;28;20046;-64
2021/03/23 06:29:17;;;;;;;6.97;3.22;;;;;;;9.45;43.58;101997.88;5008991;28;20046;-64
2021/03/23 06:31:58;;;;;;;9.50;3.50;;;;;;;9.49;43.55;101998.63;5011128;28;20104;-63
2021/03/23 06:34:33;;;;;;;9.05;4.97;;;;;;;9.53;43.72;101991.53;5011204;28;20041;-63
2021/03/23 06:37:08;;;;;;;24.05;6.90;;;;;;;9.53;43.67;101994.16;5010446;28;20054;-63
2021/03/23 06:39:34;;;;;;;16.25;6.65;;;;;;;9.57;44.07;102001.00;5008067;28;20510;-63
2021/03/23 06:42:03;;;;;;;14.38;6.10;;;;;;;9.62;43.93;102009.56;5010912;28;20069;-65
2021/03/23 06:44:35;;;;;;;33.33;7.85;;;;;;;9.66;44.07;102005.09;5010886;28;20046;-66
2021/03/23 06:47:02;;;;;;;16.48;7.55;;;;;;;9.71;43.87;102008.44;5009539;28;20049;-63
2021/03/23 06:49:35;;;;;;;23.00;9.30;;;;;;;9.79;44.08;102015.13;5009998;28;20038;-65
2021/03/23 06:52:22;;;;;;;18.42;8.82;;;;;;;9.90;43.72;102014.78;5009827;28;20081;-65
2021/03/23 06:55:20;;;;;;;17.98;7.05;;;;;;;10.03;43.67;102019.59;5010250;28;20050;-65
2021/03/23 06:57:47;;;;;;;11.00;4.75;;;;;;;10.16;43.58;102018.28;5010523;28;20038;-63
2021/03/23 07:00:30;;;;;;;8.68;4.10;;;;;;;10.28;43.45;102019.63;5010921;28;20046;-62
2021/03/23 07:03:11;;;;;;;8.35;3.58;;;;;;;10.43;43.41;102023.50;5005382;28;20058;-62
2021/03/23 07:05:39;;;;;;;8.93;3.20;;;;;;;10.56;43.13;102023.94;5010239;28;20128;-63
2021/03/23 07:08:09;;;;;;;6.85;3.67;;;;;;;10.65;42.98;102020.97;5009719;28;20041;-65
2021/03/23 07:10:42;;;;;;;9.02;3.17;;;;;;;10.76;42.85;102025.84;5008065;28;20054;-69
2021/03/23 07:13:26;;;;;;;11.98;2.83;;;;;;;10.87;42.66;102034.19;5007897;28;20050;-63
2021/03/23 07:15:59;;;;;;;11.60;3.45;;;;;;;10.98;42.59;102030.28;5008886;28;20046;-62
2021/03/23 07:18:29;;;;;;;6.35;3.03;;;;;;;11.08;42.13;102029.91;5009725;28;20057;-63
2021/03/23 07:21:25;;;;;;;6.15;2.53;;;;;;;11.18;41.75;102022.50;5009650;28;20050;-63
2021/03/23 07:24:08;;;;;;;9.82;3.92;;;;;;;11.25;41.18;102026.59;5001147;28;20133;-62
2021/03/23 07:26:36;;;;;;;7.72;2.70;;;;;;;11.32;40.70;102032.47;5009078;28;20624;-61
2021/03/23 07:29:11;;;;;;;5.75;2.33;;;;;;;11.43;40.81;102027.66;5009667;28;20045;-65
2021/03/23 07:31:50;;;;;;;5.25;2.00;;;;;;;11.46;40.76;102029.31;5009437;28;20046;-66
2021/03/23 07:34:25;;;;;;;6.45;2.55;;;;;;;11.50;40.41;102028.25;5007723;28;20046;-66
2021/03/23 07:37:11;;;;;;;6.63;2.35;;;;;;;11.51;40.33;102034.38;5008663;28;20545;-63
2021/03/23 07:39:47;;;;;;;3.85;1.73;;;;;;;11.51;40.47;102037.03;5007175;28;20042;-63
2021/03/23 07:42:28;;;;;;;3.20;1.90;;;;;;;11.56;40.03;102040.31;5006245;28;20095;-62
2021/03/23 07:45:01;;;;;;;5.20;1.80;;;;;;;11.48;39.76;102045.00;5009176;28;20107;-63
2021/03/23 07:47:44;;;;;;;4.45;1.80;;;;;;;11.37;39.43;102033.16;5006619;28;20486;-64
2021/03/23 07:50:27;;;;;;;3.08;2.08;;;;;;;11.35;39.34;102045.50;5007463;28;20061;-61
2021/03/23 07:53:07;;;;;;;5.15;1.95;;;;;;;11.40;39.08;102046.19;5007878;28;20132;-64
2021/03/23 07:55:34;;;;;;;5.35;2.10;;;;;;;11.47;39.04;102043.31;5007784;28;20465;-64
2021/03/23 07:58:00;;;;;;;5.68;3.05;;;;;;;11.55;38.95;102051.75;5008617;28;20053;-64
2021/03/23 08:00:55;;;;;;;6.15;2.30;;;;;;;11.60;38.85;102050.66;5008641;28;20096;-69
2021/03/23 08:03:56;;;;;;;4.85;2.22;;;;;;;11.67;38.59;102055.66;5008215;28;20049;-66
2021/03/23 08:06:58;;;;;;;4.72;2.03;;;;;;;11.77;38.42;102051.75;5005884;28;20046;-67
2021/03/23 08:10:16;;;;;;;6.57;3.10;;;;;;;11.84;38.28;102057.59;5000274;28;20049;-67
2021/03/23 08:12:47;;;;;;;5.40;2.38;;;;;;;11.91;38.17;102053.81;5003058;28;20078;-66
2021/03/23 08:15:48;;;;;;;5.38;2.35;;;;;;;11.89;38.07;102060.91;5008742;28;20049;-63
2021/03/23 08:18:20;;;;;;;6.78;2.38;;;;;;;11.96;38.15;102066.78;5007330;28;20495;-68
2021/03/23 08:21:35;;;;;;;5.22;2.70;;;;;;;12.05;38.42;102064.66;5006403;28;20057;-67
2021/03/23 08:24:13;;;;;;;4.80;2.60;;;;;;;12.07;37.75;102062.81;4962315;28;20043;-64
2021/03/23 08:27:17;;;;;;;7.60;3.08;;;;;;;12.12;37.74;102078.41;5007699;28;20045;-65
2021/03/23 08:30:02;;;;;;;5.25;2.72;;;;;;;12.16;37.62;102079.97;5006041;28;20609;-65
2021/03/23 08:32:47;;;;;;;6.57;2.77;;;;;;;12.19;37.45;102082.50;5006519;28;20411;-66
2021/03/23 08:35:16;;;;;;;3.55;2.15;;;;;;;12.21;37.47;102082.41;5007110;28;20054;-73
2021/03/23 08:38:01;;;;;;;10.00;2.92;;;;;;;12.19;37.29;102082.50;5005495;28;20547;-64
2021/03/23 08:40:34;;;;;;;5.05;2.10;;;;;;;12.20;37.24;102092.09;5006553;28;20046;-64
2021/03/23 08:43:00;;;;;;;7.43;2.40;;;;;;;12.18;37.04;102093.94;5008106;28;20065;-66
2021/03/23 08:45:40;;;;;;;3.67;1.90;;;;;;;12.13;36.99;102090.63;5008337;28;20482;-65
2021/03/23 08:48:35;;;;;;;5.25;2.17;;;;;;;12.11;36.95;102095.09;5008165;28;20044;-64
2021/03/23 08:51:09;;;;;;;10.35;3.00;;;;;;;12.19;37.10;102095.66;5004963;28;20077;-65
2021/03/23 08:53:46;;;;;;;4.55;2.22;;;;;;;12.32;36.77;102093.34;5008282;28;20049;-65
2021/03/23 08:56:12;;;;;;;7.05;2.75;;;;;;;12.42;36.85;102099.09;5004462;28;20108;-65
2021/03/23 08:58:53;;;;;;;5.32;2.20;;;;;;;12.51;36.70;102096.06;5007228;28;20049;-64
2021/03/23 09:01:25;;;;;;;4.18;2.17;;;;;;;12.62;36.28;102100.00;5007840;28;20042;-64
2021/03/23 09:04:12;;;;;;;5.38;2.35;;;;;;;12.71;35.86;102102.25;5005759;28;20054;-64
2021/03/23 09:06:55;;;;;;;5.60;2.33;;;;;;;12.89;35.50;102098.78;4988865;28;20050;-63
2021/03/23 09:09:25;;;;;;;7.05;2.50;;;;;;;13.05;35.45;102101.59;5009731;28;20054;-73
2021/03/23 09:12:32;;;;;;;4.95;2.63;;;;;;;13.09;35.27;102099.69;5012592;28;20053;-72
2021/03/23 09:15:17;;;;;;;7.20;2.55;;;;;;;13.10;35.15;102097.88;5002352;28;20446;-63
2021/03/23 09:18:14;;;;;;;3.87;2.33;;;;;;;13.19;35.24;102095.69;4992598;28;20051;-63
2021/03/23 09:20:41;;;;;;;;;;;;;;;13.47;34.75;102094.44;4992977;28;20281;-62
2021/03/23 09:23:16;;;;;;;8.60;3.47;;;;;;;13.63;34.57;102094.56;4992412;28;19921;-62
2021/03/23 09:26:18;;;;;;;4.90;2.45;;;;;;;13.81;34.49;102095.44;4992438;28;20066;-62
2021/03/23 09:28:46;;;;;;;6.00;2.33;;;;;;;13.94;34.30;102095.72;4988067;28;20059;-64
2021/03/23 09:31:14;;;;;;;4.65;2.60;;;;;;;13.86;34.35;102093.47;4992209;28;20062;-63
2021/03/23 09:33:48;;;;;;;6.05;2.65;;;;;;;13.74;34.46;102095.81;4991993;28;20125;-62
2021/03/23 09:36:19;;;;;;;4.82;2.60;;;;;;;13.54;35.17;102092.38;4991994;28;20061;-64
2021/03/23 09:38:54;;;;;;;7.65;2.30;;;;;;;13.42;35.13;102088.53;4991897;28;20057;-63
2021/03/23 09:41:21;;;;;;;5.25;2.55;;;;;;;13.53;35.08;102094.16;4992219;28;20105;-63
2021/03/23 09:43:52;;;;;;;7.60;5.00;;;;;;;13.63;35.22;102099.00;4991840;28;20097;-63
2021/03/23 09:46:24;;;;;;;18.77;12.45;;;;;;;13.74;34.93;102094.06;4996661;28;20407;-64
2021/03/23 09:49:15;;;;;;;15.57;9.93;;;;;;;13.81;35.29;102095.44;5011550;28;20046;-64
2021/03/23 09:51:43;;;;;;;21.20;17.25;;;;;;;13.78;35.53;102097.41;5010930;28;20073;-65
2021/03/23 09:54:38;;;;;;;9.70;7.82;;;;;;;13.74;35.15;102093.19;5011547;28;20057;-63
2021/03/23 09:57:14;;;;;;;17.45;13.18;;;;;;;13.73;34.48;102087.06;5006983;28;20050;-64
2021/03/23 10:00:01;;;;;;;5.47;3.00;;;;;;;13.85;34.58;102080.31;5009736;28;20502;-64
2021/03/23 10:02:35;;;;;;;7.50;2.55;;;;;;;14.01;34.90;102088.34;5011342;28;20414;-64
2021/03/23 10:05:28;;;;;;;5.70;2.70;;;;;;;14.26;34.04;102087.97;5010770;28;20058;-65
2021/03/23 10:08:11;;;;;;;5.15;2.50;;;;;;;14.53;33.22;102090.97;5010509;28;20733;-65
2021/03/23 10:10:38;;;;;;;19.80;12.70;;;;;;;14.66;32.73;102083.28;5011420;28;20050;-66
2021/03/23 10:13:27;;;;;;;62.55;37.67;;;;;;;14.81;32.84;102072.88;5009977;28;20481;-64
2021/03/23 10:15:55;;;;;;;15.93;8.57;;;;;;;14.89;32.58;102077.75;5000579;28;20049;-69
2021/03/23 10:18:27;;;;;;;5.07;3.13;;;;;;;15.07;31.73;102081.19;5011151;28;20042;-65
2021/03/23 10:21:01;;;;;;;12.98;8.82;;;;;;;15.35;31.21;102070.78;5010596;28;20104;-69
2021/03/23 10:23:28;;;;;;;7.18;4.30;;;;;;;15.70;30.79;102064.44;5010328;28;20100;-66
2021/03/23 10:25:56;;;;;;;16.85;10.15;;;;;;;15.86;30.39;102059.16;5010674;28;20053;-67
2021/03/23 10:28:32;;;;;;;78.20;48.13;;;;;;;15.99;29.78;102064.59;5010419;28;20058;-70
2021/03/23 10:31:05;;;;;;;83.63;48.60;;;;;;;16.13;29.46;102064.63;5010702;28;20115;-67
2021/03/23 10:33:35;;;;;;;24.83;11.88;;;;;;;16.29;29.34;102058.41;4991091;28;20048;-67
2021/03/23 10:36:05;;;;;;;4.50;2.42;;;;;;;16.43;29.36;102053.16;4990175;28;20050;-65
2021/03/23 10:38:32;;;;;;;4.47;2.30;;;;;;;16.50;29.16;102045.69;4990665;28;20051;-67
2021/03/23 10:41:01;;;;;;;6.82;2.22;;;;;;;16.58;29.41;102039.91;5006691;28;20544;-67
2021/03/23 10:43:41;;;;;;;5.43;2.10;;;;;;;16.65;29.34;102042.06;5010522;28;20082;-65
2021/03/23 10:46:44;;;;;;;6.95;2.15;;;;;;;16.82;28.68;102040.19;5010363;28;20049;-66
2021/03/23 10:49:20;;;;;;;7.07;3.00;;;;;;;16.94;28.35;102047.41;4969506;28;20085;-65
2021/03/23 10:51:48;;;;;;;25.48;12.38;;;;;;;17.03;27.93;102037.19;5003611;28;20521;-67
2021/03/23 10:54:20;;;;;;;10.25;5.32;;;;;;;17.13;28.02;102040.94;5009253;28;20050;-65
2021/03/23 10:56:55;;;;;;;12.13;5.93;;;;;;;17.30;27.81;102038.03;5005383;28;20098;-75
2021/03/23 10:59:27;;;;;;;28.08;15.27;;;;;;;17.40;27.58;102038.31;5009855;28;20092;-67
2021/03/23 11:02:02;;;;;;;41.15;19.45;;;;;;;17.50;27.45;102035.06;5007150;28;20104;-67
2021/03/23 11:04:31;;;;;;;19.38;8.10;;;;;;;17.63;27.01;102035.94;4990483;28;20060;-65
2021/03/23 11:07:23;;;;;;;16.00;8.32;;;;;;;17.84;26.93;102030.16;4990307;28;20429;-64
2021/03/23 11:09:50;;;;;;;10.75;5.82;;;;;;;17.98;26.48;102027.47;4990705;28;20097;-66
2021/03/23 11:12:17;;;;;;;6.70;3.47;;;;;;;18.10;26.21;102028.44;4989895;28;20050;-66
2021/03/23 11:14:44;;;;;;;26.10;12.23;;;;;;;18.19;25.58;102033.13;5009907;28;20112;-66
2021/03/23 11:17:16;;;;;;;10.35;5.20;;;;;;;18.30;25.71;102026.22;5009979;28;20050;-66
2021/03/23 11:19:44;;;;;;;16.40;7.70;;;;;;;18.41;25.51;102023.66;5010057;28;20057;-66
2021/03/23 11:22:15;;;;;;;6.57;2.30;;;;;;;18.55;25.05;102020.03;5010271;28;20058;-66
2021/03/23 11:24:41;;;;;;;8.45;2.20;;;;;;;18.71;25.28;102010.00;5009865;28;20056;-66
2021/03/23 11:27:08;;;;;;;4.40;2.30;;;;;;;18.82;24.94;102008.44;5009179;28;20057;-66
2021/03/23 11:29:35;;;;;;;6.15;2.70;;;;;;;18.87;24.74;102007.13;5010035;28;20455;-67
2021/03/23 11:32:01;;;;;;;13.77;9.38;;;;;;;19.01;24.79;102002.66;5009410;28;20099;-67
2021/03/23 11:34:27;;;;;;;6.57;3.03;;;;;;;19.12;24.97;101991.22;5008017;28;20045;-67
2021/03/23 11:36:54;;;;;;;24.17;17.42;;;;;;;19.18;24.38;101988.13;5009711;28;20056;-67
2021/03/23 11:39:24;;;;;;;4.40;2.60;;;;;;;19.25;24.38;101990.22;5007994;28;20049;-67
2021/03/23 11:42:12;;;;;;;28.35;16.52;;;;;;;19.32;24.50;101985.28;5009511;28;20600;-68
2021/03/23 11:44:47;;;;;;;4.45;2.92;;;;;;;19.38;23.94;101984.81;5009209;28;20050;-68
2021/03/23 11:47:23;;;;;;;4.35;2.78;;;;;;;19.53;24.40;101979.34;5008483;28;20065;-67
2021/03/23 11:50:08;;;;;;;9.57;6.22;;;;;;;19.61;24.03;101976.09;5007747;28;20108;-69